Eros Airport

Jump to: basic info | weather | frequencies | runways | comments

Related pages: nearby airports | nearby navaids | notams | map

Basic information (top)

Codes: ERS FYWE
Location: lon -22.612200, lat 17.080400, elev 5,575 ft / 1,699 m msl
Status: medium_airport
Scheduled airline service: yes
Links: Wikipedia Mobile

Weather (top)

Current conditions (rec'd 2014/08/01 09:00Z):

FYWE 010900Z 34004KT 9999 FEW050 20/M00 Q1029

Airport forecast (rec'd 2014/07/21 06:00Z):

TAF FYWE 210500Z 2106/2115 14005KT CAVOK 
      BECMG 2108/2109 36008KT

Frequencies (top)

Verify before use: may be inaccurate or out of date.

GTE: 121.7 MHz (APRON)
TWR: 118.7 MHz (TWR)

Runways (top)

01/19: 7,381 x 98 ft (2,250 x 30 m) — paved — lighted — threshold 19 displaced 984 ft (300 m)

09/27: 3,297 x 98 ft (1,005 x 30 m) — gravel — not lighted

Latest comments (top)

re: Cessna 210 crashes after takeoff: Hi, In defense of Eros Airport as ... [read]

Cessna 210 crashes after takeoff: An Atlantic Aviation Cessna 210 lost ... [read]

More... (top)

See also NOTAMs and nearby airports and navaids, or visit the Eros Airport page at the main OurAirports website..